Thunder radar more information blitzortung!


Radar de pluja more information rain snow radar


Visita la nostra xarxa de llocs de meteo:

Template documentation
and downloads

And another site



No particular awareness of the weather is required.    There are no Weather-warnings

Pagina Historial Weather Underground text

Diari Resum January 14, 2018 Unitats:  Imperial    Mètric   Tant
« Previous Dia
SegĂźent Dia »
Diari Setmana Mensual Anual Personalitzada
  Maxima: Minima: Media:
Temperatura: TemperatureC °F 4.3 °F 8 °F
Punt de rosada: DewpointC °F 0.6 °F 2.2 °F
Humitat: Humidity % 60 % 67 %
Wind Speed: WindSpeedKMH mph 0.0 mph 5.4 mph
RĂ fegues de vent: WindSpeedGustKMH mph - -
Vent:- - WSW
Pression baro: PressurehPa in 1012.8 in -
Precipitacions: 0.0 in    
Historical Graphs
 
 
Dades de taula per January 14, 2018
Temps Temperatura Punt de rosada Pression baro Vent Wind Speed RĂ fegues de vent Humitat Rainfall Rate (Hourly)
TemperatureC °F DewpointC °F PressurehPa in Calm     Humidity % HourlyPrecipMM in
00:00 6.8 °F 2.5 °F 1013.8 in NNE 2.3 mph 2.3 mph 74 % 0.0 in
00:05 5.9 °F 2.6 °F 1012.8 in West 3.2 mph 4.8 mph 79 % 0.0 in
00:25 5.7 °F 2.2 °F 1012.8 in WSW 3.2 mph 3.2 mph 78 % 0.0 in
00:35 5.4 °F 1.9 °F 1012.8 in WSW 1.6 mph 3.2 mph 78 % 0.0 in
00:45 5.4 °F 1.9 °F 1012.8 in WSW 1.6 mph 6.4 mph 78 % 0.0 in
00:55 5.3 °F 1.8 °F 1012.8 in SW 1.6 mph 3.2 mph 78 % 0.0 in
01:05 5.2 °F 1.7 °F 1012.8 in SW 3.2 mph 3.2 mph 78 % 0.0 in
01:15 5.0 °F 1.5 °F 1012.8 in WSW 3.2 mph 4.8 mph 78 % 0.0 in
01:25 4.9 °F 1.4 °F 1013.8 in WSW 3.2 mph 4.8 mph 78 % 0.0 in
01:35 4.8 °F 1.3 °F 1013.8 in WSW 1.6 mph 3.2 mph 78 % 0.0 in
01:45 4.7 °F 1.2 °F 1013.8 in WSW 3.2 mph 3.2 mph 78 % 0.0 in
01:55 4.6 °F 0.9 °F 1013.8 in WSW 3.2 mph 4.8 mph 77 % 0.0 in
02:05 4.5 °F 0.8 °F 1012.8 in WSW 1.6 mph 3.2 mph 77 % 0.0 in
02:25 4.3 °F 0.6 °F 1013.8 in WSW 1.6 mph 3.2 mph 77 % 0.0 in
02:35 4.3 °F 0.6 °F 1013.8 in WSW 1.6 mph 3.2 mph 77 % 0.0 in
02:45 4.5 °F 0.8 °F 1013.8 in WSW 1.6 mph 3.2 mph 77 % 0.0 in
02:55 4.7 °F 1.0 °F 1013.8 in WSW 1.6 mph 3.2 mph 77 % 0.0 in
03:05 5.2 °F 1.7 °F 1013.8 in Calm     78 % 0.0 in
03:15 5.8 °F 2.1 °F 1013.8 in SW 1.6 mph 4.8 mph 77 % 0.0 in
03:25 6.0 °F 2.3 °F 1013.8 in WSW 1.6 mph 3.2 mph 77 % 0.0 in
03:35 6.3 °F 2.6 °F 1014.8 in WSW 3.2 mph 4.8 mph 77 % 0.0 in
03:45 6.9 °F 2.9 °F 1014.8 in WSW 4.8 mph 8.0 mph 76 % 0.0 in
03:55 7.0 °F 2.9 °F 1014.8 in WSW 3.2 mph 3.2 mph 75 % 0.0 in
04:05 7.0 °F 2.9 °F 1014.8 in WSW 3.2 mph 4.8 mph 75 % 0.0 in
04:15 7.7 °F 3.6 °F 1014.8 in WSW 4.8 mph 4.8 mph 75 % 0.0 in
04:25 8.4 °F 4.1 °F 1014.8 in WSW 3.2 mph 4.8 mph 74 % 0.0 in
04:35 8.7 °F 4.1 °F 1014.8 in WSW 3.2 mph 9.7 mph 73 % 0.0 in
04:45 9.5 °F 4.7 °F 1014.8 in WSW 1.6 mph 4.8 mph 72 % 0.0 in
04:55 9.0 °F 4.0 °F 1015.8 in SW 3.2 mph 4.8 mph 71 % 0.0 in
05:05 8.0 °F 2.8 °F 1015.8 in WSW 8.0 mph 9.7 mph 70 % 0.0 in
05:15 8.0 °F 2.7 °F 1015.8 in West 9.7 mph 9.7 mph 69 % 0.0 in
05:20 8.2 °F 2.8 °F 1015.8 in WSW 8.0 mph 8.0 mph 69 % 0.0 in
11:29 8.0 °F 2.7 °F 1015.8 in NNW 11.9 mph 11.9 mph 69 % 0.0 in
11:53 7.7 °F 2.4 °F 1015.8 in SW 12.2 mph 12.2 mph 69 % 0.0 in
11:59 7.8 °F 2.4 °F 1015.8 in West 9.3 mph 9.3 mph 69 % 0.0 in
12:09 8.5 °F 3.1 °F 1015.8 in WSW 5.6 mph 5.6 mph 69 % 0.0 in
12:15 8.6 °F 3.0 °F 1015.8 in WNW 5.6 mph 5.6 mph 68 % 0.0 in
12:21 8.6 °F 3.0 °F 1015.8 in NW 3.7 mph 3.9 mph 68 % 0.0 in
12:27 8.7 °F 3.1 °F 1015.8 in WNW 3.7 mph 3.7 mph 68 % 0.0 in
12:34 9.2 °F 3.6 °F 1015.8 in North 6.9 mph 6.9 mph 68 % 0.0 in
12:42 9.5 °F 3.9 °F 1015.8 in NNW 7.4 mph 7.4 mph 68 % 0.0 in
12:59 9.3 °F 3.3 °F 1014.8 in West 7.4 mph 7.4 mph 66 % 0.0 in
13:06 9.2 °F 2.9 °F 1014.8 in West 5.6 mph 5.6 mph 65 % 0.0 in
13:12 9.3 °F 3.1 °F 1014.8 in ENE 5.6 mph 5.6 mph 65 % 0.0 in
13:26 9.3 °F 3.1 °F 1014.8 in South 3.7 mph 3.7 mph 65 % 0.0 in
13:40 9.0 °F 3.0 °F 1014.8 in WNW 7.4 mph 7.4 mph 66 % 0.0 in
14:01 9.1 °F 3.1 °F 1014.8 in West 5.6 mph 5.6 mph 66 % 0.0 in
14:16 9.0 °F 2.8 °F 1014.8 in West 14.8 mph 14.8 mph 65 % 0.0 in
14:23 9.2 °F 2.9 °F 1014.8 in West 7.4 mph 7.4 mph 65 % 0.0 in
14:29 9.4 °F 3.2 °F 1014.8 in SSW 5.6 mph 5.6 mph 65 % 0.0 in
14:44 10.3 °F 3.8 °F 1014.8 in WSW 9.3 mph 9.3 mph 64 % 0.0 in
14:59 10.3 °F 3.6 °F 1014.8 in WSW 9.3 mph 9.3 mph 63 % 0.0 in
15:11 10.1 °F 3.4 °F 1014.8 in WSW 13.7 mph 13.7 mph 63 % 0.0 in
15:17 10.4 °F 3.4 °F 1014.8 in WNW 7.9 mph 7.9 mph 62 % 0.0 in
15:23 10.6 °F 3.6 °F 1014.8 in WSW 9.3 mph 9.3 mph 62 % 0.0 in
15:47 10.2 °F 2.8 °F 1014.8 in West 9.3 mph 9.3 mph 60 % 0.0 in
15:52 10.2 °F 2.8 °F 1015.8 in WSW 9.5 mph 9.5 mph 60 % 0.0 in
15:59 10.3 °F 2.9 °F 1015.8 in WNW 5.6 mph 5.6 mph 60 % 0.0 in
16:08 10.3 °F 3.1 °F 1015.8 in West 7.4 mph 7.4 mph 61 % 0.0 in
16:34 9.5 °F 2.1 °F 1015.8 in SW 5.6 mph 5.6 mph 60 % 0.0 in
16:47 9.5 °F 2.1 °F 1015.8 in ENE 9.3 mph 9.3 mph 60 % 0.0 in
16:58 9.4 °F 2.0 °F 1015.8 in WNW 5.6 mph 5.6 mph 60 % 0.0 in
17:05 9.3 °F 1.9 °F 1015.8 in WNW 7.4 mph 7.4 mph 60 % 0.0 in
17:21 8.8 °F 1.7 °F 1015.8 in WSW 5.6 mph 5.6 mph 61 % 0.0 in
17:36 8.7 °F 1.6 °F 1015.8 in WSW 5.8 mph 5.8 mph 61 % 0.0 in
18:07 8.7 °F 1.6 °F 1015.8 in WSW 5.8 mph 5.8 mph 61 % 0.0 in
18:19 8.7 °F 1.6 °F 1015.8 in WSW 5.8 mph 5.8 mph 61 % 0.0 in
18:31 8.7 °F 1.6 °F 1015.8 in WSW 5.8 mph 5.8 mph 61 % 0.0 in
19:00 8.7 °F 1.6 °F 1015.8 in WSW 5.8 mph 5.8 mph 61 % 0.0 in
19:12 8.7 °F 1.6 °F 1015.8 in WSW 5.8 mph 5.8 mph 61 % 0.0 in
19:19 8.7 °F 1.6 °F 1015.8 in WSW 5.8 mph 5.8 mph 61 % 0.0 in
19:29 8.7 °F 1.6 °F 1015.8 in WSW 5.8 mph 5.8 mph 61 % 0.0 in
19:41 8.7 °F 1.6 °F 1015.8 in WSW 5.8 mph 5.8 mph 61 % 0.0 in
19:47 8.7 °F 1.6 °F 1015.8 in WSW 5.8 mph 5.8 mph 61 % 0.0 in
19:52 8.7 °F 1.6 °F 1015.8 in WSW 5.8 mph 5.8 mph 61 % 0.0 in
20:05 8.7 °F 1.6 °F 1015.8 in WSW 5.8 mph 5.8 mph 61 % 0.0 in
20:11 8.7 °F 1.6 °F 1015.8 in WSW 5.8 mph 5.8 mph 61 % 0.0 in
20:17 8.7 °F 1.6 °F 1015.8 in WSW 5.8 mph 5.8 mph 61 % 0.0 in
20:22 8.7 °F 1.6 °F 1015.8 in WSW 5.8 mph 5.8 mph 61 % 0.0 in
20:27 8.7 °F 1.6 °F 1015.8 in WSW 5.8 mph 5.8 mph 61 % 0.0 in
20:36 8.7 °F 1.6 °F 1015.8 in WSW 5.8 mph 5.8 mph 61 % 0.0 in
21:04 8.7 °F 1.6 °F 1015.8 in WSW 5.8 mph 5.8 mph 61 % 0.0 in
21:10 8.7 °F 1.6 °F 1015.8 in WSW 5.8 mph 5.8 mph 61 % 0.0 in
21:24 8.7 °F 1.6 °F 1015.8 in WSW 5.8 mph 5.8 mph 61 % 0.0 in
21:36 8.7 °F 1.6 °F 1015.8 in WSW 5.8 mph 5.8 mph 61 % 0.0 in
22:06 8.7 °F 1.6 °F 1015.8 in WSW 5.8 mph 5.8 mph 61 % 0.0 in
22:12 8.7 °F 1.6 °F 1015.8 in WSW 5.8 mph 5.8 mph 61 % 0.0 in
22:24 8.7 °F 1.6 °F 1015.8 in WSW 5.8 mph 5.8 mph 61 % 0.0 in
22:38 8.7 °F 1.6 °F 1015.8 in WSW 5.8 mph 5.8 mph 61 % 0.0 in
22:43 8.7 °F 1.6 °F 1015.8 in WSW 5.8 mph 5.8 mph 61 % 0.0 in
22:50 8.7 °F 1.6 °F 1015.8 in WSW 5.8 mph 5.8 mph 61 % 0.0 in
22:57 8.7 °F 1.6 °F 1015.8 in WSW 5.8 mph 5.8 mph 61 % 0.0 in
23:16 8.7 °F 1.6 °F 1015.8 in WSW 5.8 mph 5.8 mph 61 % 0.0 in
23:40 8.7 °F 1.6 °F 1015.8 in WSW 5.8 mph 5.8 mph 61 % 0.0 in
Meteo Sesrovires
Elogis d' Weather Underground - 1.25 mb

Guio original per  Jim McMurry - jmcmurry@mwt.net Adaptat per a la plantilla per  Wim van der Kuil - Leuven-Template.eu

Trobareu la nostra informacio del temps tambe a:

Weather Underground

AWEKAS